Time;durP1;ratioP1;P1;durP2;ratioP2;P2;SDS_P1;SDS_P2;PMS_P1;PMS_P2;Temp;Humidity;BMP_temperature;BMP_pressure;BME280_temperature;BME280_humidity;BME280_pressure;Samples;Min_cycle;Max_cycle;Signal;HPM_P1;HPM_P2
2023/08/29 00:01:34;;;;;;;1.40;1.30;;;25.80;66.90;;;;;;4858922;29;20451;-83
2023/08/29 00:04:02;;;;;;;1.30;1.30;;;25.80;67.00;;;;;;4852905;29;20557;-83
2023/08/29 00:06:32;;;;;;;1.50;1.40;;;25.70;67.00;;;;;;4859362;29;20469;-83
2023/08/29 00:09:01;;;;;;;1.40;1.30;;;25.70;67.00;;;;;;4858525;29;20551;-83
2023/08/29 00:11:30;;;;;;;1.43;1.40;;;25.80;67.00;;;;;;4859098;29;20472;-82
2023/08/29 00:13:59;;;;;;;1.60;1.50;;;25.70;67.00;;;;;;4858510;29;20502;-82
2023/08/29 00:16:27;;;;;;;1.50;1.40;;;25.70;67.00;;;;;;4853134;29;20493;-82
2023/08/29 00:18:55;;;;;;;1.37;1.37;;;25.70;67.00;;;;;;4858364;29;20554;-81
2023/08/29 00:21:23;;;;;;;1.33;1.27;;;25.70;67.00;;;;;;4862445;29;20545;-82
2023/08/29 00:23:53;;;;;;;1.40;1.40;;;25.70;67.00;;;;;;4861750;29;20557;-83
2023/08/29 00:26:21;;;;;;;1.80;1.70;;;25.70;67.00;;;;;;4862900;29;20520;-84
2023/08/29 00:28:51;;;;;;;1.50;1.43;;;25.70;67.00;;;;;;4861029;29;20514;-82
2023/08/29 00:31:19;;;;;;;1.27;1.27;;;25.70;67.00;;;;;;4861329;29;20922;-82
2023/08/29 00:33:47;;;;;;;1.40;1.30;;;25.70;67.00;;;;;;4862538;29;20461;-84
2023/08/29 00:36:15;;;;;;;1.47;1.37;;;25.70;67.00;;;;;;4860954;29;20531;-82
2023/08/29 00:38:43;;;;;;;1.10;1.10;;;25.70;67.00;;;;;;4862333;29;20446;-82
2023/08/29 00:41:13;;;;;;;1.70;1.60;;;25.70;67.00;;;;;;4862871;29;20473;-83
2023/08/29 00:43:41;;;;;;;1.23;1.23;;;25.70;67.00;;;;;;4860724;29;20458;-83
2023/08/29 00:46:09;;;;;;;1.30;1.30;;;25.70;67.00;;;;;;4852209;29;20855;-82
2023/08/29 00:48:38;;;;;;;1.13;1.07;;;25.70;67.00;;;;;;4857889;29;20550;-82
2023/08/29 00:51:06;;;;;;;1.20;1.20;;;25.70;67.00;;;;;;4858311;29;20468;-82
2023/08/29 00:53:36;;;;;;;1.20;1.20;;;25.70;67.00;;;;;;4862234;29;20483;-82
2023/08/29 00:56:05;;;;;;;1.30;1.30;;;25.70;67.00;;;;;;4857388;29;20532;-82
2023/08/29 00:58:35;;;;;;;1.47;1.37;;;25.70;67.00;;;;;;4861221;29;20923;-82
2023/08/29 01:01:03;;;;;;;1.10;1.10;;;25.70;67.00;;;;;;4862644;29;20812;-82
2023/08/29 01:03:32;;;;;;;1.17;1.17;;;25.70;67.00;;;;;;4862096;29;20443;-83
2023/08/29 01:06:00;;;;;;;1.13;1.13;;;25.70;67.10;;;;;;4862050;29;20440;-83
2023/08/29 01:08:29;;;;;;;1.30;1.23;;;25.70;67.10;;;;;;4862409;29;20462;-82
2023/08/29 01:11:02;;;;;;;1.30;1.30;;;25.70;67.10;;;;;;4860734;29;20489;-82
2023/08/29 01:13:38;;;;;;;1.30;1.20;;;25.70;67.10;;;;;;4858124;29;20574;-84
2023/08/29 01:16:09;;;;;;;1.13;1.10;;;25.70;67.10;;;;;;4851245;29;20475;-82
2023/08/29 01:18:39;;;;;;;1.70;1.60;;;25.70;67.10;;;;;;4843431;29;20943;-82
2023/08/29 01:21:17;;;;;;;1.60;1.50;;;25.70;67.00;;;;;;4852293;29;20470;-82
2023/08/29 01:23:54;;;;;;;1.27;1.27;;;25.70;67.10;;;;;;4857871;29;20471;-82
2023/08/29 01:26:26;;;;;;;1.40;1.30;;;25.70;67.10;;;;;;4855160;29;20477;-82
2023/08/29 01:28:55;;;;;;;1.50;1.40;;;25.70;67.10;;;;;;4842485;29;20960;-83
2023/08/29 01:31:29;;;;;;;1.00;1.00;;;25.60;67.10;;;;;;4849191;29;20502;-82
2023/08/29 01:33:58;;;;;;;1.50;1.40;;;25.60;67.10;;;;;;4860205;29;20512;-82
2023/08/29 01:36:27;;;;;;;1.30;1.30;;;25.60;67.10;;;;;;4861471;29;20494;-82
2023/08/29 01:38:56;;;;;;;1.50;1.40;;;25.60;67.10;;;;;;4861967;29;20526;-82
2023/08/29 01:41:25;;;;;;;1.37;1.27;;;25.60;67.10;;;;;;4861393;29;20474;-82
2023/08/29 01:43:54;;;;;;;1.10;1.10;;;25.60;67.10;;;;;;4845265;29;20483;-82
2023/08/29 01:46:23;;;;;;;1.53;1.43;;;25.60;67.10;;;;;;4845345;29;20463;-82
2023/08/29 01:48:51;;;;;;;1.47;1.40;;;25.60;67.10;;;;;;4857250;29;20471;-82
2023/08/29 01:51:19;;;;;;;1.60;1.50;;;25.60;67.10;;;;;;4848687;29;20472;-83
2023/08/29 01:53:48;;;;;;;1.43;1.40;;;25.60;67.10;;;;;;4860186;29;20933;-83
2023/08/29 01:56:19;;;;;;;1.50;1.40;;;25.60;67.10;;;;;;4859402;29;20528;-82
2023/08/29 01:58:49;;;;;;;1.30;1.30;;;25.60;67.10;;;;;;4842804;29;20471;-82
2023/08/29 02:01:17;;;;;;;1.20;1.20;;;25.60;67.10;;;;;;4855910;29;20990;-82
2023/08/29 02:03:51;;;;;;;1.47;1.37;;;25.60;67.10;;;;;;4854390;29;20470;-82
2023/08/29 02:06:19;;;;;;;1.30;1.30;;;25.60;67.10;;;;;;4861262;29;20455;-82
2023/08/29 02:08:48;;;;;;;1.40;1.40;;;25.60;67.10;;;;;;4854778;29;20466;-82
2023/08/29 02:11:16;;;;;;;1.20;1.20;;;25.60;67.10;;;;;;4858311;29;20999;-84
2023/08/29 02:13:44;;;;;;;1.57;1.47;;;25.60;67.10;;;;;;4854052;29;20473;-85
2023/08/29 02:16:14;;;;;;;1.17;1.07;;;25.60;67.10;;;;;;4860068;29;20865;-83
2023/08/29 02:18:42;;;;;;;1.40;1.40;;;25.60;67.10;;;;;;4859018;29;20481;-82
2023/08/29 02:21:13;;;;;;;1.50;1.40;;;25.60;67.10;;;;;;4859986;29;20562;-82
2023/08/29 02:23:41;;;;;;;1.07;1.07;;;25.60;67.10;;;;;;4860417;29;20455;-82
2023/08/29 02:26:09;;;;;;;1.23;1.20;;;25.60;67.10;;;;;;4860838;29;20470;-83
2023/08/29 02:28:39;;;;;;;1.60;1.50;;;25.60;67.10;;;;;;4859331;29;20952;-82
2023/08/29 02:31:09;;;;;;;1.30;1.20;;;25.60;67.10;;;;;;4860200;29;21008;-82
2023/08/29 02:33:41;;;;;;;1.53;1.43;;;25.60;67.10;;;;;;4874694;29;20806;-82
2023/08/29 02:36:09;;;;;;;1.37;1.37;;;25.50;67.10;;;;;;4860940;29;20434;-82
2023/08/29 02:38:38;;;;;;;1.50;1.50;;;25.60;67.10;;;;;;4860413;29;20526;-82
2023/08/29 02:41:07;;;;;;;1.40;1.40;;;25.50;67.10;;;;;;4875125;29;20918;-82
2023/08/29 02:43:35;;;;;;;1.50;1.40;;;25.50;67.10;;;;;;4845102;29;20482;-82
2023/08/29 02:46:03;;;;;;;1.60;1.50;;;25.50;67.10;;;;;;4841370;29;20500;-82
2023/08/29 02:48:33;;;;;;;1.80;1.70;;;25.50;67.10;;;;;;4844471;29;20927;-82
2023/08/29 02:51:02;;;;;;;1.37;1.27;;;25.50;67.10;;;;;;4843694;29;20490;-82
2023/08/29 02:53:31;;;;;;;1.47;1.37;;;25.50;67.20;;;;;;4860431;29;20445;-83
2023/08/29 02:55:59;;;;;;;1.40;1.40;;;25.50;67.10;;;;;;4859412;29;21018;-82
2023/08/29 02:58:27;;;;;;;1.40;1.30;;;25.50;67.10;;;;;;4859237;29;20436;-82
2023/08/29 03:00:57;;;;;;;1.30;1.10;;;25.50;67.10;;;;;;4860225;29;20465;-82
2023/08/29 03:03:26;;;;;;;1.43;1.43;;;25.50;67.10;;;;;;4859156;29;20465;-82
2023/08/29 03:05:55;;;;;;;1.20;1.20;;;25.50;67.20;;;;;;4874211;29;20470;-82
2023/08/29 03:08:25;;;;;;;1.50;1.43;;;25.50;67.10;;;;;;4873785;29;20466;-82
2023/08/29 03:10:54;;;;;;;1.30;1.30;;;25.50;67.20;;;;;;4855914;29;20864;-82
2023/08/29 03:13:22;;;;;;;1.60;1.50;;;25.50;67.20;;;;;;4842766;29;20477;-83
2023/08/29 03:15:51;;;;;;;1.50;1.40;;;25.50;67.20;;;;;;4840249;29;20462;-82
2023/08/29 03:18:19;;;;;;;1.43;1.33;;;25.50;67.20;;;;;;4856527;29;20471;-82
2023/08/29 03:20:48;;;;;;;1.60;1.50;;;25.50;67.20;;;;;;4858514;29;20486;-82
2023/08/29 03:23:16;;;;;;;1.60;1.50;;;25.50;67.20;;;;;;4871392;29;20457;-83
2023/08/29 03:25:46;;;;;;;1.20;1.20;;;25.50;67.20;;;;;;4877391;29;20460;-82
2023/08/29 03:28:14;;;;;;;1.63;1.50;;;25.50;67.20;;;;;;4877432;29;20488;-82
2023/08/29 03:30:43;;;;;;;1.33;1.20;;;25.50;67.20;;;;;;4877052;29;20994;-83
2023/08/29 03:33:12;;;;;;;1.83;1.73;;;25.50;67.20;;;;;;4855748;29;20478;-82
2023/08/29 03:35:40;;;;;;;1.27;1.27;;;25.50;67.20;;;;;;4841184;29;20449;-82
2023/08/29 03:38:09;;;;;;;1.60;1.50;;;25.50;67.20;;;;;;4855407;29;20935;-82
2023/08/29 03:40:38;;;;;;;1.70;1.60;;;25.50;67.20;;;;;;4860010;29;20465;-82
2023/08/29 03:43:08;;;;;;;1.20;1.20;;;25.50;67.20;;;;;;4858465;29;20463;-82
2023/08/29 03:45:36;;;;;;;1.60;1.43;;;25.50;67.20;;;;;;4845510;29;20498;-82
2023/08/29 03:48:05;;;;;;;1.80;1.70;;;25.40;67.20;;;;;;4855059;29;20528;-82
2023/08/29 03:50:46;;;;;;;1.77;1.67;;;25.40;67.20;;;;;;4855307;29;20499;-82
2023/08/29 03:53:14;;;;;;;1.83;1.73;;;25.40;67.20;;;;;;4859443;29;20481;-82
2023/08/29 03:55:42;;;;;;;1.40;1.40;;;25.40;67.20;;;;;;4857569;29;20547;-82
2023/08/29 03:58:12;;;;;;;1.30;1.30;;;25.40;67.20;;;;;;4858485;29;20504;-83
2023/08/29 04:00:42;;;;;;;1.50;1.50;;;25.40;67.20;;;;;;4858172;29;20957;-83
2023/08/29 04:03:10;;;;;;;1.20;1.20;;;25.40;67.20;;;;;;4857694;29;20462;-83
2023/08/29 04:05:39;;;;;;;1.47;1.37;;;25.40;67.20;;;;;;4858967;29;20910;-82
2023/08/29 04:08:08;;;;;;;1.57;1.47;;;25.40;67.20;;;;;;4872154;29;20995;-82
2023/08/29 04:10:40;;;;;;;1.60;1.50;;;25.40;67.20;;;;;;4845660;29;20525;-81
2023/08/29 04:13:10;;;;;;;1.53;1.50;;;25.40;67.20;;;;;;4857007;29;20466;-82
2023/08/29 04:15:39;;;;;;;1.43;1.43;;;25.40;67.20;;;;;;4851026;29;20465;-82
2023/08/29 04:18:08;;;;;;;1.63;1.53;;;25.40;67.20;;;;;;4840274;29;20445;-82
2023/08/29 04:20:37;;;;;;;1.40;1.30;;;25.40;67.20;;;;;;4855154;29;20550;-81
2023/08/29 04:23:07;;;;;;;1.50;1.50;;;25.40;67.20;;;;;;4868075;29;20474;-82
2023/08/29 04:25:36;;;;;;;1.30;1.30;;;25.40;67.20;;;;;;4864889;29;20458;-82
2023/08/29 04:28:05;;;;;;;1.93;1.83;;;25.40;67.20;;;;;;4856693;29;20567;-81
2023/08/29 04:30:35;;;;;;;1.27;1.27;;;25.40;67.20;;;;;;4859425;29;20862;-83
2023/08/29 04:33:06;;;;;;;1.20;1.20;;;25.40;67.20;;;;;;4856591;29;20856;-83
2023/08/29 04:35:35;;;;;;;1.50;1.40;;;25.40;67.20;;;;;;4858196;29;20476;-82
2023/08/29 04:38:03;;;;;;;1.30;1.30;;;25.40;67.20;;;;;;4849306;29;20509;-83
2023/08/29 04:40:32;;;;;;;1.40;1.30;;;25.40;67.20;;;;;;4842835;29;21017;-82
2023/08/29 04:43:00;;;;;;;1.10;1.10;;;25.40;67.20;;;;;;4852928;29;20477;-83
2023/08/29 04:45:28;;;;;;;1.63;1.53;;;25.40;67.20;;;;;;4870820;29;20470;-81
2023/08/29 04:47:57;;;;;;;1.67;1.57;;;25.40;67.20;;;;;;4857371;29;20462;-82
2023/08/29 04:50:28;;;;;;;1.70;1.60;;;25.40;67.20;;;;;;4851530;29;20470;-82
2023/08/29 04:52:57;;;;;;;1.60;1.60;;;25.40;67.20;;;;;;4856362;29;20526;-82
2023/08/29 04:55:25;;;;;;;1.20;1.20;;;25.40;67.20;;;;;;4851554;29;20470;-83
2023/08/29 04:57:56;;;;;;;1.70;1.60;;;25.40;67.20;;;;;;4857096;29;20472;-82
2023/08/29 05:00:24;;;;;;;1.73;1.63;;;25.40;67.20;;;;;;4852702;29;20966;-82
2023/08/29 05:02:52;;;;;;;1.70;1.60;;;25.40;67.20;;;;;;4853339;29;20694;-82
2023/08/29 05:05:21;;;;;;;1.77;1.67;;;25.30;67.20;;;;;;4871317;29;20465;-82
2023/08/29 05:07:50;;;;;;;1.50;1.40;;;25.40;67.20;;;;;;4850855;29;20476;-82
2023/08/29 05:10:24;;;;;;;1.80;1.70;;;25.40;67.20;;;;;;4857771;29;20617;-83
2023/08/29 05:12:53;;;;;;;1.97;1.87;;;25.30;67.20;;;;;;4858209;29;20568;-82
2023/08/29 05:15:21;;;;;;;1.43;1.43;;;25.40;67.20;;;;;;4862082;29;20453;-82
2023/08/29 05:17:50;;;;;;;1.67;1.57;;;25.30;67.20;;;;;;4861493;29;20528;-83
2023/08/29 05:20:18;;;;;;;1.90;1.80;;;25.30;67.20;;;;;;4862133;29;20816;-82
2023/08/29 05:22:47;;;;;;;1.53;1.43;;;25.30;67.20;;;;;;4852065;29;20454;-82
2023/08/29 05:25:17;;;;;;;1.47;1.37;;;25.30;67.20;;;;;;4844142;29;20434;-82
2023/08/29 05:27:45;;;;;;;1.40;1.40;;;25.30;67.20;;;;;;4854398;29;20508;-83
2023/08/29 05:30:13;;;;;;;1.40;1.40;;;25.30;67.20;;;;;;4861638;29;20472;-82
2023/08/29 05:32:41;;;;;;;1.63;1.40;;;25.30;67.20;;;;;;4861532;29;20493;-83
2023/08/29 05:35:10;;;;;;;1.70;1.60;;;25.30;67.20;;;;;;4861523;29;20534;-82
2023/08/29 05:37:38;;;;;;;1.60;1.57;;;25.30;67.20;;;;;;4850209;29;20461;-82
2023/08/29 05:40:08;;;;;;;1.67;1.60;;;25.30;67.20;;;;;;4857128;29;20501;-82
2023/08/29 05:42:38;;;;;;;1.73;1.63;;;25.30;67.20;;;;;;4860676;29;20453;-82
2023/08/29 05:45:07;;;;;;;1.60;1.50;;;25.30;67.20;;;;;;4861327;29;20454;-81
2023/08/29 05:47:35;;;;;;;1.77;1.67;;;25.30;67.20;;;;;;4861355;29;20441;-83
2023/08/29 05:50:04;;;;;;;1.77;1.67;;;25.30;67.20;;;;;;4861225;29;20433;-82
2023/08/29 05:52:32;;;;;;;1.67;1.57;;;25.30;67.20;;;;;;4854854;29;20845;-82
2023/08/29 05:55:00;;;;;;;1.80;1.70;;;25.30;67.20;;;;;;4861888;29;20499;-83
2023/08/29 05:57:28;;;;;;;1.30;1.30;;;25.30;67.20;;;;;;4860726;29;20503;-82
2023/08/29 05:59:58;;;;;;;1.60;1.50;;;25.30;67.20;;;;;;4861100;29;20466;-82
2023/08/29 06:02:26;;;;;;;1.30;1.30;;;25.30;67.20;;;;;;4855272;29;20552;-82
2023/08/29 06:04:54;;;;;;;1.63;1.53;;;25.30;67.20;;;;;;4861481;29;20476;-82
2023/08/29 06:07:23;;;;;;;1.43;1.33;;;25.30;67.20;;;;;;4855578;29;20554;-82
2023/08/29 06:09:51;;;;;;;1.63;1.53;;;25.30;67.20;;;;;;4861822;29;20446;-82
2023/08/29 06:12:19;;;;;;;1.40;1.40;;;25.30;67.20;;;;;;4860292;29;20483;-83
2023/08/29 06:14:47;;;;;;;1.60;1.50;;;25.30;67.20;;;;;;4860635;29;20907;-82
2023/08/29 06:17:17;;;;;;;1.67;1.67;;;25.30;67.20;;;;;;4860030;29;21026;-82
2023/08/29 06:19:45;;;;;;;4.40;1.60;;;25.30;67.20;;;;;;4859552;29;20465;-82
2023/08/29 06:22:13;;;;;;;1.40;1.30;;;25.30;67.20;;;;;;4856237;29;20507;-82
2023/08/29 06:24:42;;;;;;;1.87;1.77;;;25.30;67.20;;;;;;4842187;29;20439;-82
2023/08/29 06:27:10;;;;;;;1.63;1.53;;;25.30;67.20;;;;;;4842609;29;20438;-83
2023/08/29 06:29:38;;;;;;;1.73;1.63;;;25.30;67.20;;;;;;4853852;29;20502;-82
2023/08/29 06:32:07;;;;;;;1.47;1.37;;;25.30;67.20;;;;;;4860447;29;20955;-82
2023/08/29 06:34:36;;;;;;;1.53;1.43;;;25.30;67.20;;;;;;4854396;29;20481;-82
2023/08/29 06:37:05;;;;;;;1.50;1.40;;;25.30;67.20;;;;;;4861070;29;20456;-82
2023/08/29 06:39:34;;;;;;;1.70;1.60;;;25.30;67.20;;;;;;4860287;29;20820;-82
2023/08/29 06:42:02;;;;;;;1.50;1.50;;;25.30;67.10;;;;;;4860485;29;20456;-82
2023/08/29 06:44:31;;;;;;;1.40;1.30;;;25.30;67.20;;;;;;4858786;29;20938;-82
2023/08/29 06:46:59;;;;;;;1.50;1.40;;;25.30;67.20;;;;;;4860786;29;20520;-82
2023/08/29 06:49:27;;;;;;;1.47;1.40;;;25.30;67.20;;;;;;4859006;29;20948;-82
2023/08/29 06:51:57;;;;;;;1.47;1.37;;;25.30;67.10;;;;;;4860720;29;20449;-82
2023/08/29 06:54:25;;;;;;;1.77;1.67;;;25.30;67.10;;;;;;4859849;29;20469;-82
2023/08/29 06:56:54;;;;;;;1.80;1.70;;;25.30;67.10;;;;;;4860452;29;20490;-82
2023/08/29 06:59:22;;;;;;;1.57;1.47;;;25.30;67.10;;;;;;4873599;29;20881;-82
2023/08/29 07:01:50;;;;;;;1.60;1.50;;;25.30;67.10;;;;;;4859914;29;20453;-83
2023/08/29 07:04:21;;;;;;;1.80;1.70;;;25.30;67.10;;;;;;4854759;29;20470;-83
2023/08/29 07:06:49;;;;;;;1.87;1.77;;;25.30;67.20;;;;;;4860085;29;20460;-82
2023/08/29 07:09:19;;;;;;;1.37;1.37;;;25.30;67.10;;;;;;4859906;29;20839;-82
2023/08/29 07:11:47;;;;;;;1.00;1.00;;;25.30;67.10;;;;;;4860370;29;20437;-82
2023/08/29 07:14:15;;;;;;;1.70;1.60;;;25.30;67.10;;;;;;4858823;29;20476;-82
2023/08/29 07:16:43;;;;;;;1.20;1.20;;;25.30;67.10;;;;;;4859738;29;20497;-82
2023/08/29 07:19:31;;;;;;;1.77;1.67;;;25.30;67.10;;;;;;4860141;29;20494;-82
2023/08/29 07:21:59;;;;;;;1.60;1.50;;;25.30;67.10;;;;;;4859528;29;20448;-82
2023/08/29 07:24:33;;;;;;;2.13;1.70;;;25.30;67.10;;;;;;4859726;29;20453;-83
2023/08/29 07:27:01;;;;;;;1.60;1.60;;;25.30;67.10;;;;;;4859729;29;20447;-82
2023/08/29 07:29:29;;;;;;;1.30;1.30;;;25.30;67.10;;;;;;4858050;29;20471;-82
2023/08/29 07:31:57;;;;;;;1.30;1.30;;;25.30;67.10;;;;;;4856389;29;20577;-82
2023/08/29 07:34:25;;;;;;;1.20;1.20;;;25.30;67.10;;;;;;4857737;29;20488;-83
2023/08/29 07:36:53;;;;;;;1.23;1.23;;;25.30;67.10;;;;;;4859509;29;20875;-82
2023/08/29 07:39:24;;;;;;;1.40;1.40;;;25.30;67.10;;;;;;4859282;29;20869;-82
2023/08/29 07:41:53;;;;;;;1.60;1.50;;;25.30;67.10;;;;;;4859915;29;20509;-82
2023/08/29 07:44:22;;;;;;;1.47;1.37;;;25.30;67.10;;;;;;4858481;29;20428;-82
2023/08/29 07:46:50;;;;;;;1.40;1.40;;;25.30;67.10;;;;;;4859449;29;20445;-82
2023/08/29 07:49:38;;;;;;;1.60;1.50;;;25.30;67.10;;;;;;4859640;29;20957;-82
2023/08/29 07:52:06;;;;;;;1.33;1.27;;;25.30;67.10;;;;;;4859034;29;20486;-83
2023/08/29 07:54:35;;;;;;;1.43;1.33;;;25.30;67.10;;;;;;4859194;29;20552;-82
2023/08/29 07:57:04;;;;;;;1.77;1.57;;;25.30;67.00;;;;;;4859784;29;20494;-83
2023/08/29 07:59:33;;;;;;;1.20;1.20;;;25.30;67.00;;;;;;4858654;29;20533;-82
2023/08/29 08:02:01;;;;;;;1.40;1.30;;;25.30;67.00;;;;;;4853261;29;20471;-83
2023/08/29 08:04:29;;;;;;;1.30;1.30;;;25.30;67.00;;;;;;4859495;29;20496;-82
2023/08/29 08:06:57;;;;;;;1.53;1.43;;;25.30;67.00;;;;;;4859149;29;20493;-82
2023/08/29 08:09:26;;;;;;;1.50;1.40;;;25.30;67.00;;;;;;4858701;29;20441;-83
2023/08/29 08:11:55;;;;;;;1.40;1.23;;;25.30;67.00;;;;;;4859155;29;20454;-82
2023/08/29 08:14:24;;;;;;;1.60;1.50;;;25.30;67.00;;;;;;4856915;29;20852;-81
2023/08/29 08:16:52;;;;;;;1.40;1.30;;;25.30;67.00;;;;;;4859140;29;20505;-82
2023/08/29 08:19:21;;;;;;;1.30;1.30;;;25.30;67.00;;;;;;4857309;29;20445;-83
2023/08/29 08:21:49;;;;;;;1.30;1.30;;;25.30;67.00;;;;;;4857596;29;20472;-83
2023/08/29 08:24:18;;;;;;;1.73;1.63;;;25.30;67.00;;;;;;4852916;29;20480;-82
2023/08/29 08:26:46;;;;;;;1.70;1.60;;;25.30;67.00;;;;;;4858442;29;20454;-82
2023/08/29 08:29:15;;;;;;;1.47;1.37;;;25.30;66.90;;;;;;4858023;29;20434;-82
2023/08/29 08:31:45;;;;;;;1.73;1.63;;;25.30;66.90;;;;;;4855928;29;20526;-83
2023/08/29 08:34:14;;;;;;;2.57;1.17;;;25.30;66.90;;;;;;4852336;29;21027;-83
2023/08/29 08:36:42;;;;;;;1.33;1.33;;;25.30;66.90;;;;;;4840321;29;20444;-81
2023/08/29 08:39:10;;;;;;;1.17;1.17;;;25.30;67.00;;;;;;4840061;29;20448;-83
2023/08/29 08:41:40;;;;;;;1.60;1.50;;;25.30;66.90;;;;;;4845287;29;20821;-82
2023/08/29 08:44:12;;;;;;;1.37;1.27;;;25.30;66.90;;;;;;4861949;29;20444;-82
2023/08/29 08:46:40;;;;;;;1.70;1.60;;;25.30;66.90;;;;;;4863117;29;20457;-82
2023/08/29 08:49:10;;;;;;;1.50;1.43;;;25.30;66.90;;;;;;4862582;29;20508;-82
2023/08/29 08:51:41;;;;;;;1.10;1.10;;;25.30;66.90;;;;;;4861200;29;20553;-82
2023/08/29 08:54:09;;;;;;;1.77;1.67;;;25.30;66.90;;;;;;4862673;29;20473;-82
2023/08/29 08:56:39;;;;;;;1.57;1.47;;;25.30;66.90;;;;;;4862164;29;20465;-82
2023/08/29 08:59:07;;;;;;;1.50;1.40;;;25.30;66.90;;;;;;4856017;29;20465;-82
2023/08/29 09:01:35;;;;;;;1.13;1.13;;;25.30;66.90;;;;;;4856839;29;20523;-82
2023/08/29 09:04:04;;;;;;;1.20;1.13;;;25.30;66.80;;;;;;4862188;29;20503;-83
2023/08/29 09:06:35;;;;;;;1.50;1.40;;;25.30;66.80;;;;;;4862147;29;20434;-82
2023/08/29 09:09:17;;;;;;;1.57;1.50;;;25.30;66.80;;;;;;4862355;29;20510;-82
2023/08/29 09:11:50;;;;;;;1.23;1.23;;;25.30;66.80;;;;;;4856495;29;20966;-83
2023/08/29 09:14:19;;;;;;;1.77;1.67;;;25.30;66.80;;;;;;4861164;29;20472;-83
2023/08/29 09:16:47;;;;;;;1.10;1.10;;;25.30;66.80;;;;;;4856884;29;20469;-83
2023/08/29 09:19:17;;;;;;;1.20;1.20;;;25.30;66.70;;;;;;4861926;29;20939;-82
2023/08/29 09:21:47;;;;;;;1.00;1.00;;;25.30;66.70;;;;;;4862191;29;20478;-82
2023/08/29 09:24:22;;;;;;;1.30;1.30;;;25.30;66.70;;;;;;4861690;29;20531;-82
2023/08/29 09:26:50;;;;;;;1.17;1.17;;;25.30;66.70;;;;;;4861560;29;20456;-83
2023/08/29 09:29:19;;;;;;;1.60;1.50;;;25.40;66.70;;;;;;4855364;29;20534;-83
2023/08/29 09:31:48;;;;;;;1.40;1.30;;;25.40;66.70;;;;;;4862314;29;20546;-83
2023/08/29 09:34:27;;;;;;;1.40;1.30;;;25.40;66.60;;;;;;4861310;29;20993;-83
2023/08/29 09:36:57;;;;;;;1.17;1.17;;;25.40;66.60;;;;;;4859438;29;20555;-81
2023/08/29 09:39:27;;;;;;;1.27;1.17;;;25.40;66.60;;;;;;4859594;29;20444;-82
2023/08/29 09:42:01;;;;;;;1.43;1.37;;;25.40;66.60;;;;;;4858466;29;20494;-82
2023/08/29 09:44:30;;;;;;;1.00;1.00;;;25.40;66.60;;;;;;4861144;29;20456;-82
2023/08/29 09:46:58;;;;;;;1.37;1.27;;;25.40;66.60;;;;;;4861674;29;20459;-82
2023/08/29 09:49:32;;;;;;;1.10;1.10;;;25.40;66.60;;;;;;4861280;29;20450;-82
2023/08/29 09:52:02;;;;;;;1.00;1.00;;;25.40;66.60;;;;;;4861584;29;21318;-82
2023/08/29 09:54:33;;;;;;;1.07;1.07;;;25.40;66.60;;;;;;4855180;29;20530;-82
2023/08/29 09:57:06;;;;;;;1.43;1.33;;;25.40;66.60;;;;;;4856052;29;20872;-82
2023/08/29 09:59:39;;;;;;;1.10;1.10;;;25.40;66.60;;;;;;4842191;29;20850;-82
2023/08/29 10:02:10;;;;;;;1.40;1.30;;;25.40;66.60;;;;;;4844039;29;20845;-82
2023/08/29 10:04:47;;;;;;;1.20;1.20;;;25.40;66.60;;;;;;4860003;29;20460;-82
2023/08/29 10:07:23;;;;;;;1.50;1.50;;;25.40;66.50;;;;;;4861223;29;20847;-82
2023/08/29 10:09:52;;;;;;;1.23;1.23;;;25.40;66.50;;;;;;4860903;29;20433;-82
2023/08/29 10:12:20;;;;;;;1.20;1.10;;;25.40;66.50;;;;;;4860340;29;20447;-85
2023/08/29 10:14:49;;;;;;;1.10;1.10;;;25.40;66.50;;;;;;4860653;29;20493;-82
2023/08/29 10:17:19;;;;;;;1.13;1.13;;;25.40;66.50;;;;;;4860921;29;20488;-84
2023/08/29 10:19:59;;;;;;;1.60;1.50;;;25.40;66.50;;;;;;4855367;29;20462;-83
2023/08/29 10:22:30;;;;;;;1.20;1.10;;;25.40;66.60;;;;;;4860915;29;20462;-82
2023/08/29 10:25:00;;;;;;;1.33;1.20;;;25.40;66.60;;;;;;4847306;29;20462;-82
2023/08/29 10:27:29;;;;;;;1.10;1.10;;;25.40;66.60;;;;;;4848583;29;20467;-82
2023/08/29 10:29:57;;;;;;;1.10;1.10;;;25.40;66.60;;;;;;4860907;29;20474;-83
2023/08/29 10:32:27;;;;;;;1.40;1.30;;;25.40;66.60;;;;;;4860398;29;20519;-82
2023/08/29 10:34:57;;;;;;;1.10;1.10;;;25.40;66.60;;;;;;4861078;29;20492;-82
2023/08/29 10:37:28;;;;;;;1.80;1.70;;;25.40;66.60;;;;;;4859959;29;20459;-82
2023/08/29 10:40:11;;;;;;;1.50;1.40;;;25.40;66.60;;;;;;4859992;29;20453;-83
2023/08/29 10:42:51;;;;;;;1.10;1.10;;;25.40;66.50;;;;;;4860116;29;20459;-83
2023/08/29 10:45:21;;;;;;;0.90;0.90;;;25.40;66.50;;;;;;4860231;29;20432;-83
2023/08/29 10:47:49;;;;;;;1.10;1.10;;;25.40;66.50;;;;;;4860303;29;20499;-82
2023/08/29 10:50:21;;;;;;;1.00;1.00;;;25.40;66.50;;;;;;4860850;29;20491;-83
2023/08/29 10:52:56;;;;;;;1.60;1.50;;;25.40;66.40;;;;;;4860179;29;20516;-83
2023/08/29 10:55:28;;;;;;;1.00;1.00;;;25.50;66.40;;;;;;4854473;29;21070;-82
2023/08/29 10:57:58;;;;;;;1.20;1.20;;;25.50;66.40;;;;;;4859910;29;20443;-82
2023/08/29 11:00:34;;;;;;;1.43;1.33;;;25.50;66.30;;;;;;4860054;29;20443;-84
2023/08/29 11:03:05;;;;;;;1.30;1.30;;;25.50;66.20;;;;;;4859956;29;20440;-83
2023/08/29 11:05:33;;;;;;;1.10;1.10;;;25.50;66.20;;;;;;4860589;29;20507;-82
2023/08/29 11:08:22;;;;;;;1.50;1.50;;;25.60;66.20;;;;;;4859729;29;20498;-83
2023/08/29 11:11:18;;;;;;;1.50;1.40;;;25.60;66.10;;;;;;4859998;29;20435;-83
2023/08/29 11:14:00;;;;;;;1.30;1.30;;;25.60;66.10;;;;;;4859152;29;20446;-82
2023/08/29 11:16:30;;;;;;;1.00;1.00;;;25.60;66.10;;;;;;4860103;29;20486;-82
2023/08/29 11:19:06;;;;;;;1.20;1.20;;;25.60;66.00;;;;;;4859423;29;20514;-82
2023/08/29 11:21:34;;;;;;;1.10;1.10;;;25.60;66.00;;;;;;4860070;29;20454;-82
2023/08/29 11:24:05;;;;;;;1.33;1.27;;;25.60;66.00;;;;;;4856186;29;20527;-83
2023/08/29 11:26:47;;;;;;;1.30;1.20;;;25.60;66.00;;;;;;4841343;29;20489;-82
2023/08/29 11:29:16;;;;;;;1.10;1.10;;;25.60;66.10;;;;;;4840263;29;20443;-83
2023/08/29 11:31:45;;;;;;;1.00;1.00;;;25.60;66.00;;;;;;4842865;29;20991;-83
2023/08/29 11:34:14;;;;;;;1.20;1.10;;;25.60;66.00;;;;;;4858246;29;20550;-83
2023/08/29 11:36:45;;;;;;;1.10;1.10;;;25.60;66.00;;;;;;4853649;29;20487;-85
2023/08/29 11:39:13;;;;;;;1.13;1.10;;;25.60;66.00;;;;;;4858436;29;20473;-82
2023/08/29 11:41:43;;;;;;;1.17;1.17;;;25.60;66.00;;;;;;4859242;29;20445;-82
2023/08/29 11:44:29;;;;;;;1.07;1.07;;;25.60;66.00;;;;;;4858834;29;20445;-83
2023/08/29 11:47:17;;;;;;;1.50;1.40;;;25.60;66.10;;;;;;4859857;29;20461;-84
2023/08/29 11:49:49;;;;;;;1.50;1.50;;;25.60;66.10;;;;;;4859516;29;20550;-83
2023/08/29 11:52:17;;;;;;;1.10;1.10;;;25.50;66.10;;;;;;4859437;29;20458;-82
2023/08/29 11:54:48;;;;;;;1.50;1.40;;;25.50;66.10;;;;;;4853410;29;20971;-82
2023/08/29 11:57:17;;;;;;;1.20;1.20;;;25.50;66.20;;;;;;4859097;29;20439;-82
2023/08/29 11:59:48;;;;;;;1.40;1.30;;;25.50;66.10;;;;;;4859034;29;20430;-82
2023/08/29 12:02:18;;;;;;;1.83;1.40;;;25.50;66.10;;;;;;4859448;29;20510;-82
2023/08/29 12:04:49;;;;;;;0.80;0.80;;;25.50;66.10;;;;;;4859280;29;20449;-82
2023/08/29 12:07:18;;;;;;;1.23;1.23;;;25.50;66.10;;;;;;4859043;29;20436;-82
2023/08/29 12:09:48;;;;;;;1.10;1.10;;;25.50;66.10;;;;;;4859486;29;20542;-82
2023/08/29 12:12:30;;;;;;;1.00;1.00;;;25.60;66.00;;;;;;4858983;29;20542;-83
2023/08/29 12:14:59;;;;;;;0.93;0.93;;;25.60;66.00;;;;;;4859040;29;20465;-82
2023/08/29 12:17:38;;;;;;;1.20;1.20;;;25.60;65.90;;;;;;4857722;29;20463;-83
2023/08/29 12:20:29;;;;;;;1.17;1.10;;;25.60;65.90;;;;;;4858420;29;21319;-82
2023/08/29 12:22:58;;;;;;;1.03;1.03;;;25.60;66.00;;;;;;4848880;29;20972;-83
2023/08/29 12:25:26;;;;;;;1.27;1.17;;;25.60;66.00;;;;;;4839729;29;20459;-82
2023/08/29 12:27:55;;;;;;;1.10;1.10;;;25.50;66.00;;;;;;4844532;29;20545;-82
2023/08/29 12:30:24;;;;;;;1.30;1.20;;;25.50;66.10;;;;;;4858835;29;20439;-82
2023/08/29 12:32:53;;;;;;;1.10;1.10;;;25.50;66.10;;;;;;4858686;29;20489;-82
2023/08/29 12:35:21;;;;;;;1.20;1.20;;;25.50;66.10;;;;;;4858621;29;20462;-83
2023/08/29 12:37:50;;;;;;;1.20;1.20;;;25.50;66.10;;;;;;4858824;29;20957;-82
2023/08/29 12:40:18;;;;;;;0.80;0.80;;;25.50;66.10;;;;;;4859321;29;20511;-84
2023/08/29 12:42:49;;;;;;;0.90;0.90;;;25.50;66.10;;;;;;4857848;29;20438;-82
2023/08/29 12:45:18;;;;;;;0.90;0.90;;;25.50;66.10;;;;;;4859317;29;20525;-82
2023/08/29 12:47:50;;;;;;;1.00;1.00;;;25.50;66.10;;;;;;4858629;29;20478;-83
2023/08/29 12:50:18;;;;;;;1.20;1.20;;;25.50;66.00;;;;;;4857931;29;20541;-83
2023/08/29 12:52:47;;;;;;;1.10;1.10;;;25.50;66.00;;;;;;4855115;29;20513;-82
2023/08/29 12:55:15;;;;;;;1.47;1.37;;;25.50;66.00;;;;;;4858779;29;20454;-82
2023/08/29 12:57:45;;;;;;;1.00;1.00;;;25.50;66.00;;;;;;4852045;29;20955;-82
2023/08/29 13:00:14;;;;;;;1.10;1.10;;;25.50;66.00;;;;;;4853271;29;20468;-82
2023/08/29 13:02:43;;;;;;;1.20;1.10;;;25.50;66.00;;;;;;4857134;29;20467;-83